Terminal Aerodrome Forecast
Issued by NWS

Home | Current Version | Previous Version | Text Only | Print | Product List | Glossary On
Versions: 1 2 3 4 5 6 7 8 9 10 11
000
FTUS42 TJSJ 301739
TAFJMZ
TAF
TJMZ 301739Z 3018/3118 29011KT P6SM VCTS SCT025CB BKN040
      TEMPO 3018/3022 VRB12G22KT 3SM TSRA BKN025CB BKN060
     FM302330 06006KT P6SM SCT030 SCT060 SCT120=

USA.gov is the U.S. government's official web portal to all federal, state and local government web resources and services.